createdAt,value
2022-09-11T00:03:24.880Z,5.35
2022-09-11T00:08:27.691Z,5.18
2022-09-11T00:13:29.928Z,5.15
2022-09-11T00:18:36.442Z,5.21
2022-09-11T00:23:38.962Z,5.03
2022-09-11T00:28:41.229Z,4.93
2022-09-11T00:33:44.901Z,5.11
2022-09-11T00:38:48.023Z,4.95
2022-09-11T00:44:06.560Z,5.17
2022-09-11T00:49:20.851Z,4.84
2022-09-11T00:54:27.673Z,4.93
2022-09-11T00:59:31.471Z,3.84
2022-09-11T01:04:33.837Z,4.44
2022-09-11T01:09:36.181Z,4.76
2022-09-11T01:14:48.323Z,4.92
2022-09-11T01:20:11.869Z,4.90
2022-09-11T01:25:27.675Z,4.83
2022-09-11T01:30:38.152Z,4.82
2022-09-11T01:35:54.575Z,4.79
2022-09-11T01:41:08.327Z,4.45
2022-09-11T01:46:13.380Z,3.98
2022-09-11T01:51:29.028Z,4.23
2022-09-11T01:56:37.035Z,3.89
2022-09-11T02:01:49.788Z,4.14
2022-09-11T02:07:20.862Z,3.57
2022-09-11T02:12:31.552Z,4.32
2022-09-11T02:17:53.039Z,4.22
2022-09-11T02:23:02.321Z,4.36
2022-09-11T02:28:04.548Z,4.33
2022-09-11T02:33:43.715Z,4.17
2022-09-11T02:39:27.843Z,4.15
2022-09-11T02:44:45.302Z,4.33
2022-09-11T02:49:51.749Z,4.33
2022-09-11T02:54:55.146Z,4.31
2022-09-11T03:00:04.462Z,3.94
2022-09-11T03:05:09.717Z,4.27
2022-09-11T03:10:12.378Z,3.97
2022-09-11T03:15:17.018Z,3.99
2022-09-11T03:20:20.431Z,3.86
2022-09-11T03:25:28.428Z,4.15
2022-09-11T03:30:33.039Z,3.55
2022-09-11T03:35:35.670Z,3.67
2022-09-11T03:40:39.276Z,3.77
2022-09-11T03:46:00.911Z,3.83
2022-09-11T03:51:05.921Z,3.82
2022-09-11T03:56:08.467Z,3.52
2022-09-11T04:01:19.347Z,3.61
2022-09-11T04:06:23.396Z,3.68
2022-09-11T04:11:25.782Z,4.08
2022-09-11T04:16:33.763Z,4.07
2022-09-11T04:21:36.369Z,4.08
2022-09-11T04:26:39.370Z,4.39
2022-09-11T04:31:51.671Z,4.27
2022-09-11T04:36:55.693Z,2.93
2022-09-11T04:41:58.918Z,4.23
2022-09-11T04:47:01.588Z,4.52
2022-09-11T04:52:06.289Z,4.68
2022-09-11T04:57:09.783Z,4.14
2022-09-11T05:02:15.334Z,4.82
2022-09-11T05:07:21.122Z,5.00
2022-09-11T05:12:26.139Z,4.72
2022-09-11T05:17:28.983Z,5.48
2022-09-11T05:22:32.374Z,5.37
2022-09-11T05:27:36.569Z,5.92
2022-09-11T05:32:39.492Z,5.84
2022-09-11T05:37:42.121Z,6.40
2022-09-11T05:42:45.872Z,5.90
2022-09-11T05:47:53.165Z,6.65
2022-09-11T05:52:58.128Z,7.07
2022-09-11T05:58:00.460Z,7.21
2022-09-11T06:03:06.107Z,6.87
2022-09-11T06:08:09.420Z,7.61
2022-09-11T06:13:12.439Z,7.93
2022-09-11T06:18:16.499Z,8.41
2022-09-11T06:23:19.913Z,8.21
2022-09-11T06:28:23.412Z,8.53
2022-09-11T06:33:48.252Z,9.06
2022-09-11T06:38:55.248Z,9.09
2022-09-11T06:43:59.218Z,9.18
2022-09-11T06:49:03.466Z,9.27
2022-09-11T06:54:06.726Z,9.24
2022-09-11T06:59:11.410Z,9.80
2022-09-11T07:04:13.657Z,9.72
2022-09-11T07:09:21.018Z,9.48
2022-09-11T07:14:30.108Z,10.04
2022-09-11T07:20:02.347Z,10.19
2022-09-11T07:25:07.873Z,9.85
2022-09-11T07:30:14.235Z,10.55
2022-09-11T07:35:21.965Z,10.56
2022-09-11T07:40:28.036Z,10.75
2022-09-11T07:45:33.636Z,11.00
2022-09-11T07:50:37.878Z,11.26
2022-09-11T07:55:40.529Z,10.57
2022-09-11T08:00:43.030Z,10.55
2022-09-11T08:06:00.447Z,11.55
2022-09-11T08:11:05.659Z,11.66
2022-09-11T08:16:08.237Z,11.92
2022-09-11T08:21:13.216Z,11.85
2022-09-11T08:26:22.463Z,11.12
2022-09-11T08:31:28.441Z,12.23
2022-09-11T08:36:33.255Z,12.10
2022-09-11T08:41:47.962Z,12.36
2022-09-11T08:47:06.842Z,12.37
2022-09-11T08:52:12.605Z,12.00
2022-09-11T08:57:20.324Z,12.13
2022-09-11T09:03:01.559Z,12.62
2022-09-11T09:08:30.663Z,12.43
2022-09-11T09:14:29.557Z,12.14
2022-09-11T09:19:44.853Z,12.79
2022-09-11T09:24:54.012Z,12.36
2022-09-11T09:29:59.737Z,12.47
2022-09-11T09:35:05.719Z,12.83
2022-09-11T09:40:10.587Z,13.10
2022-09-11T09:45:24.152Z,13.19
2022-09-11T09:50:31.443Z,13.26
2022-09-11T09:55:36.130Z,12.90
2022-09-11T10:00:40.151Z,12.96
2022-09-11T10:05:43.319Z,13.23
2022-09-11T10:10:57.069Z,13.49
2022-09-11T10:16:01.852Z,12.79
2022-09-11T10:21:13.350Z,13.53
2022-09-11T10:26:18.265Z,13.51
2022-09-11T10:31:22.679Z,12.76
2022-09-11T10:36:27.512Z,13.41
2022-09-11T10:41:35.161Z,13.38
2022-09-11T10:46:39.306Z,13.65
2022-09-11T10:51:47.467Z,13.41
2022-09-11T10:57:05.612Z,13.58
2022-09-11T11:02:26.203Z,13.24
2022-09-11T11:07:38.101Z,13.73
2022-09-11T11:13:15.912Z,13.82
2022-09-11T11:18:21.091Z,13.79
2022-09-11T11:23:34.264Z,13.79
2022-09-11T11:28:47.364Z,13.52
2022-09-11T11:34:31.867Z,13.94
2022-09-11T11:40:11.788Z,13.97
2022-09-11T11:45:22.958Z,13.95
2022-09-11T11:50:44.912Z,13.91
2022-09-11T11:56:11.996Z,13.99
2022-09-11T12:01:23.213Z,13.41
2022-09-11T12:06:26.658Z,13.48
2022-09-11T12:11:33.409Z,13.91
2022-09-11T12:16:36.754Z,13.64
2022-09-11T12:22:02.967Z,13.76
2022-09-11T12:27:33.992Z,14.01
2022-09-11T12:32:51.962Z,13.81
2022-09-11T12:38:15.679Z,13.83
2022-09-11T12:43:36.549Z,14.06
2022-09-11T12:48:44.393Z,13.59
2022-09-11T12:53:51.085Z,13.75
2022-09-11T12:59:02.174Z,13.95
2022-09-11T13:04:21.428Z,13.71
2022-09-11T13:09:52.887Z,14.13
2022-09-11T13:14:59.178Z,13.94
2022-09-11T13:20:08.107Z,14.14
2022-09-11T13:25:16.025Z,14.13
2022-09-11T13:30:21.904Z,13.83
2022-09-11T13:35:30.296Z,14.10
2022-09-11T13:40:45.752Z,13.87
2022-09-11T13:45:48.111Z,13.70
2022-09-11T13:50:51.357Z,13.75
2022-09-11T13:55:54.548Z,13.76
2022-09-11T14:01:19.648Z,13.26
2022-09-11T14:06:22.260Z,13.65
2022-09-11T14:11:28.506Z,13.90
2022-09-11T14:16:38.547Z,13.84
2022-09-11T14:21:44.078Z,13.41
2022-09-11T14:26:50.686Z,13.76
2022-09-11T14:31:54.115Z,13.27
2022-09-11T14:37:05.705Z,13.20
2022-09-11T14:42:09.736Z,13.14
2022-09-11T14:47:23.245Z,12.81
2022-09-11T14:52:29.877Z,12.57
2022-09-11T14:57:34.164Z,13.05
2022-09-11T15:02:37.116Z,13.07
2022-09-11T15:07:39.435Z,13.19
2022-09-11T15:12:42.803Z,12.86
2022-09-11T15:17:46.510Z,12.43
2022-09-11T15:22:48.909Z,12.90
2022-09-11T15:27:52.720Z,12.41
2022-09-11T15:32:55.287Z,12.59
2022-09-11T15:37:57.988Z,12.63
2022-09-11T15:43:00.269Z,12.33
2022-09-11T15:48:03.153Z,11.19
2022-09-11T15:53:06.214Z,12.08
2022-09-11T15:58:08.550Z,12.02
2022-09-11T16:03:12.182Z,12.06
2022-09-11T16:08:15.683Z,11.32
2022-09-11T16:13:19.038Z,12.23
2022-09-11T16:18:22.937Z,11.71
2022-09-11T16:23:27.009Z,11.93
2022-09-11T16:28:30.593Z,11.89
2022-09-11T16:33:34.624Z,11.99
2022-09-11T16:38:38.256Z,11.57
2022-09-11T16:43:41.641Z,11.74
2022-09-11T16:48:44.574Z,11.06
2022-09-11T16:53:49.632Z,11.17
2022-09-11T16:58:52.590Z,10.92
2022-09-11T17:03:56.589Z,11.29
2022-09-11T17:09:03.169Z,10.60
2022-09-11T17:14:05.699Z,11.10
2022-09-11T17:19:09.838Z,10.85
2022-09-11T17:24:13.034Z,11.26
2022-09-11T17:29:15.638Z,11.01
2022-09-11T17:34:17.916Z,10.81
2022-09-11T17:39:20.300Z,10.68
2022-09-11T17:44:24.836Z,10.50
2022-09-11T17:49:27.250Z,10.51
2022-09-11T17:54:29.601Z,10.54
2022-09-11T17:59:32.061Z,10.55
2022-09-11T18:04:34.465Z,10.62
2022-09-11T18:09:37.246Z,10.42
2022-09-11T18:14:40.687Z,10.77
2022-09-11T18:19:46.498Z,10.49
2022-09-11T18:25:09.715Z,9.98
2022-09-11T18:30:23.133Z,8.75
2022-09-11T18:35:25.381Z,9.44
2022-09-11T18:40:29.919Z,10.46
2022-09-11T18:45:35.620Z,10.31
2022-09-11T18:50:38.837Z,9.81
2022-09-11T18:55:42.773Z,10.05
2022-09-11T19:00:45.142Z,10.38
2022-09-11T19:05:47.532Z,9.41
2022-09-11T19:10:50.012Z,9.85
2022-09-11T19:16:00.346Z,9.92
2022-09-11T19:21:05.877Z,10.24
2022-09-11T19:26:29.540Z,9.71
2022-09-11T19:31:32.540Z,10.24
2022-09-11T19:36:36.132Z,9.85
2022-09-11T19:41:41.100Z,10.02
2022-09-11T19:46:44.375Z,10.10
2022-09-11T19:51:46.706Z,9.80
2022-09-11T19:56:50.373Z,9.87
2022-09-11T20:01:52.661Z,9.91
2022-09-11T20:12:00.487Z,9.95
2022-09-11T20:17:04.960Z,9.73
2022-09-11T20:22:07.743Z,9.83
2022-09-11T20:27:09.987Z,9.67
2022-09-11T20:32:17.010Z,9.74
2022-09-11T20:37:19.216Z,9.81
2022-09-11T20:42:24.517Z,10.00
2022-09-11T20:47:26.919Z,9.92
2022-09-11T20:52:30.647Z,9.61
2022-09-11T20:57:32.976Z,9.12
2022-09-11T21:02:35.208Z,9.39
2022-09-11T21:07:37.894Z,10.04
2022-09-11T21:12:40.123Z,10.04
2022-09-11T21:17:42.466Z,9.62
2022-09-11T21:22:45.025Z,9.86
2022-09-11T21:27:48.538Z,8.96
2022-09-11T21:32:52.167Z,9.12
2022-09-11T21:37:54.459Z,9.18
2022-09-11T21:42:56.777Z,9.72
2022-09-11T21:47:59.062Z,9.41
2022-09-11T21:53:01.582Z,9.66
2022-09-11T21:58:03.998Z,9.37
2022-09-11T22:03:06.401Z,9.07
2022-09-11T22:08:12.324Z,9.61
2022-09-11T22:13:15.061Z,9.37
2022-09-11T22:18:18.434Z,9.54
2022-09-11T22:23:23.428Z,10.16
2022-09-11T22:28:26.051Z,10.18
2022-09-11T22:33:28.328Z,9.04
2022-09-11T22:38:30.604Z,9.89
2022-09-11T22:43:33.031Z,9.27
2022-09-11T22:48:35.572Z,9.75
2022-09-11T22:53:39.969Z,10.22
2022-09-11T22:58:42.378Z,9.53
2022-09-11T23:03:44.868Z,10.16
2022-09-11T23:08:48.109Z,10.34
2022-09-11T23:13:50.824Z,9.99
2022-09-11T23:18:57.635Z,10.00
2022-09-11T23:24:00.823Z,9.49
2022-09-11T23:29:03.073Z,10.09
2022-09-11T23:34:07.205Z,10.38
2022-09-11T23:39:10.105Z,9.65
2022-09-11T23:44:12.347Z,10.16
2022-09-11T23:49:15.097Z,9.94
2022-09-11T23:54:17.398Z,10.15
2022-09-11T23:59:19.774Z,10.02
